createdAt,value
2019-02-16T00:00:47.614Z,3.90
2019-02-16T00:03:14.531Z,3.80
2019-02-16T00:05:41.455Z,3.90
2019-02-16T00:08:08.370Z,3.80
2019-02-16T00:10:35.321Z,3.80
2019-02-16T00:13:02.618Z,3.70
2019-02-16T00:15:29.634Z,3.70
2019-02-16T00:17:56.500Z,3.70
2019-02-16T00:20:23.301Z,3.70
2019-02-16T00:22:50.098Z,3.70
2019-02-16T00:25:16.938Z,3.70
2019-02-16T00:27:43.733Z,3.90
2019-02-16T00:30:10.737Z,3.90
2019-02-16T00:32:37.886Z,3.90
2019-02-16T00:35:04.918Z,3.90
2019-02-16T00:37:31.730Z,3.80
2019-02-16T00:39:58.628Z,3.90
2019-02-16T00:42:25.526Z,3.90
2019-02-16T00:44:52.319Z,4.00
2019-02-16T00:47:19.266Z,3.90
2019-02-16T00:49:46.070Z,4.00
2019-02-16T00:52:12.875Z,4.00
2019-02-16T00:54:39.700Z,4.20
2019-02-16T00:57:06.517Z,4.20
2019-02-16T00:59:33.318Z,4.20
2019-02-16T01:02:00.160Z,4.20
2019-02-16T01:04:27.068Z,4.10
2019-02-16T01:06:55.773Z,4.20
2019-02-16T01:09:22.654Z,4.10
2019-02-16T01:11:49.623Z,4.10
2019-02-16T01:14:16.531Z,4.20
2019-02-16T01:16:43.402Z,4.10
2019-02-16T01:19:10.215Z,4.00
2019-02-16T01:21:37.025Z,3.90
2019-02-16T01:24:04.051Z,3.90
2019-02-16T01:26:30.849Z,3.80
2019-02-16T01:28:57.647Z,3.80
2019-02-16T01:31:24.470Z,3.80
2019-02-16T01:33:51.369Z,3.80
2019-02-16T01:36:18.381Z,3.80
2019-02-16T01:38:45.239Z,3.80
2019-02-16T01:41:12.067Z,3.70
2019-02-16T01:43:38.899Z,3.70
2019-02-16T01:46:05.867Z,3.70
2019-02-16T01:48:32.900Z,3.50
2019-02-16T01:50:59.800Z,3.40
2019-02-16T01:53:26.645Z,3.30
2019-02-16T01:55:53.452Z,3.10
2019-02-16T01:58:20.962Z,3.10
2019-02-16T02:00:48.034Z,3.00
2019-02-16T02:03:15.030Z,2.90
2019-02-16T02:05:41.854Z,2.90
2019-02-16T02:08:08.890Z,2.90
2019-02-16T02:10:35.702Z,2.90
2019-02-16T02:13:02.502Z,3.00
2019-02-16T02:15:29.650Z,3.00
2019-02-16T02:17:56.448Z,3.10
2019-02-16T02:20:23.350Z,3.30
2019-02-16T02:22:50.368Z,3.50
2019-02-16T02:25:17.153Z,3.40
2019-02-16T02:27:43.984Z,3.50
2019-02-16T02:30:11.103Z,3.50
2019-02-16T02:32:38.082Z,3.50
2019-02-16T02:35:05.302Z,3.60
2019-02-16T02:37:32.149Z,3.50
2019-02-16T02:39:59.055Z,3.60
2019-02-16T02:42:25.889Z,3.60
2019-02-16T02:44:52.730Z,3.70
2019-02-16T02:47:19.541Z,3.70
2019-02-16T02:49:46.350Z,3.60
2019-02-16T02:52:13.302Z,3.60
2019-02-16T02:54:40.142Z,3.60
2019-02-16T02:57:07.076Z,3.80
2019-02-16T02:59:34.430Z,3.90
2019-02-16T03:02:01.282Z,3.70
2019-02-16T03:04:28.081Z,3.60
2019-02-16T03:06:54.911Z,3.50
2019-02-16T03:09:21.696Z,3.40
2019-02-16T03:11:48.503Z,3.40
2019-02-16T03:14:15.353Z,3.30
2019-02-16T03:16:42.159Z,3.30
2019-02-16T03:19:09.118Z,3.20
2019-02-16T03:21:38.309Z,3.20
2019-02-16T03:24:05.106Z,3.20
2019-02-16T03:26:54.460Z,3.20
2019-02-16T03:29:37.528Z,3.20
2019-02-16T03:32:28.811Z,3.20
2019-02-16T03:35:43.582Z,3.10
2019-02-16T03:38:33.964Z,3.20
2019-02-16T03:41:00.760Z,3.20
2019-02-16T03:43:27.586Z,3.20
2019-02-16T03:45:54.560Z,3.20
2019-02-16T03:48:21.410Z,3.20
2019-02-16T03:50:48.339Z,3.50
2019-02-16T03:53:15.186Z,3.50
2019-02-16T03:55:42.184Z,3.40
2019-02-16T03:58:09.011Z,3.50
2019-02-16T04:00:35.949Z,3.50
2019-02-16T04:03:03.020Z,3.50
2019-02-16T04:05:29.929Z,3.40
2019-02-16T04:07:56.784Z,3.30
2019-02-16T04:10:23.614Z,3.20
2019-02-16T04:12:50.421Z,3.10
2019-02-16T04:15:17.241Z,3.10
2019-02-16T04:17:44.050Z,3.10
2019-02-16T04:20:10.995Z,3.10
2019-02-16T04:22:37.994Z,3.10
2019-02-16T04:25:05.001Z,3.10
2019-02-16T04:27:31.797Z,3.10
2019-02-16T04:29:58.638Z,3.10
2019-02-16T04:32:25.552Z,3.10
2019-02-16T04:34:52.351Z,3.10
2019-02-16T04:37:19.291Z,3.10
2019-02-16T04:39:46.197Z,3.20
2019-02-16T04:42:13.115Z,3.20
2019-02-16T04:44:40.002Z,3.20
2019-02-16T04:47:07.015Z,3.30
2019-02-16T04:49:34.122Z,3.40
2019-02-16T04:52:01.108Z,3.40
2019-02-16T04:54:27.991Z,3.30
2019-02-16T04:56:54.806Z,3.30
2019-02-16T04:59:21.651Z,3.30
2019-02-16T05:01:48.545Z,3.40
2019-02-16T05:04:15.363Z,3.40
2019-02-16T05:06:42.245Z,3.60
2019-02-16T05:09:09.254Z,3.60
2019-02-16T05:11:36.074Z,3.60
2019-02-16T05:14:03.031Z,3.50
2019-02-16T05:16:30.084Z,3.60
2019-02-16T05:18:56.892Z,3.60
2019-02-16T05:21:23.929Z,3.60
2019-02-16T05:23:50.829Z,3.60
2019-02-16T05:26:17.725Z,3.60
2019-02-16T05:28:44.581Z,3.60
2019-02-16T05:31:11.492Z,3.50
2019-02-16T05:33:38.290Z,3.40
2019-02-16T05:36:05.250Z,3.30
2019-02-16T05:38:32.058Z,3.30
2019-02-16T05:40:58.881Z,3.40
2019-02-16T05:43:25.759Z,3.60
2019-02-16T05:45:52.566Z,3.50
2019-02-16T05:48:19.366Z,3.60
2019-02-16T05:50:46.202Z,3.70
2019-02-16T05:53:13.006Z,3.70
2019-02-16T05:55:39.826Z,3.60
2019-02-16T05:58:06.774Z,3.50
2019-02-16T06:00:33.602Z,3.50
2019-02-16T06:03:00.410Z,3.40
2019-02-16T06:05:27.302Z,3.40
2019-02-16T06:07:54.099Z,3.30
2019-02-16T06:10:20.883Z,3.30
2019-02-16T06:12:48.114Z,3.40
2019-02-16T06:15:14.987Z,3.20
2019-02-16T06:17:41.798Z,3.20
2019-02-16T06:20:08.649Z,3.20
2019-02-16T06:22:35.481Z,3.10
2019-02-16T06:25:02.556Z,3.20
2019-02-16T06:27:29.820Z,3.10
2019-02-16T06:29:56.752Z,3.10
2019-02-16T06:32:23.677Z,3.10
2019-02-16T06:34:55.630Z,3.00
2019-02-16T06:37:23.723Z,3.00
2019-02-16T06:39:50.927Z,3.10
2019-02-16T06:42:17.909Z,3.10
2019-02-16T06:44:44.717Z,3.10
2019-02-16T06:47:14.127Z,3.20
2019-02-16T06:49:41.079Z,3.20
2019-02-16T06:52:08.070Z,3.20
2019-02-16T06:54:34.866Z,3.30
2019-02-16T06:57:05.373Z,3.30
2019-02-16T06:59:32.178Z,3.40
2019-02-16T07:01:58.975Z,3.40
2019-02-16T07:04:25.814Z,3.40
2019-02-16T07:06:52.635Z,3.40
2019-02-16T07:09:19.546Z,3.40
2019-02-16T07:11:46.553Z,3.50
2019-02-16T07:14:13.357Z,3.60
2019-02-16T07:16:58.966Z,3.60
2019-02-16T07:19:37.819Z,3.80
2019-02-16T07:22:04.911Z,3.80
2019-02-16T07:24:31.711Z,3.80
2019-02-16T07:26:58.567Z,3.90
2019-02-16T07:29:25.499Z,4.00
2019-02-16T07:31:52.309Z,4.00
2019-02-16T07:34:38.773Z,4.00
2019-02-16T07:37:05.577Z,4.10
2019-02-16T07:39:32.386Z,4.20
2019-02-16T07:41:59.261Z,4.30
2019-02-16T07:44:32.358Z,4.40
2019-02-16T07:47:10.401Z,4.50
2019-02-16T07:49:49.402Z,4.60
2019-02-16T07:52:24.778Z,4.60
2019-02-16T07:54:56.621Z,4.80
2019-02-16T07:57:35.059Z,4.90
2019-02-16T08:00:10.471Z,5.00
2019-02-16T08:02:58.990Z,5.00
2019-02-16T08:05:33.633Z,5.10
2019-02-16T08:08:23.182Z,5.20
2019-02-16T08:11:27.739Z,5.30
2019-02-16T08:14:02.176Z,5.30
2019-02-16T08:16:36.655Z,5.40
2019-02-16T08:19:11.424Z,5.40
2019-02-16T08:21:56.865Z,5.50
2019-02-16T08:24:52.550Z,5.50
2019-02-16T08:27:24.022Z,5.60
2019-02-16T08:30:09.155Z,5.70
2019-02-16T08:33:07.770Z,5.80
2019-02-16T08:35:52.778Z,5.80
2019-02-16T08:38:42.097Z,5.90
2019-02-16T08:41:25.865Z,5.80
2019-02-16T08:44:01.782Z,6.00
2019-02-16T08:46:41.681Z,6.00
2019-02-16T08:49:33.985Z,6.10
2019-02-16T08:52:18.251Z,6.10
2019-02-16T08:54:52.323Z,6.20
2019-02-16T08:57:41.097Z,6.30
2019-02-16T09:00:30.345Z,6.50
2019-02-16T09:03:05.303Z,6.50
2019-02-16T09:05:56.367Z,6.70
2019-02-16T09:08:33.102Z,6.70
2019-02-16T09:11:22.297Z,6.70
2019-02-16T09:13:57.271Z,6.70
2019-02-16T09:16:37.855Z,6.90
2019-02-16T09:19:21.666Z,7.00
2019-02-16T09:21:57.076Z,7.20
2019-02-16T09:24:32.766Z,7.20
2019-02-16T09:27:12.266Z,7.20
2019-02-16T09:29:56.229Z,7.30
2019-02-16T09:32:43.954Z,7.50
2019-02-16T09:35:29.087Z,7.50
2019-02-16T09:38:15.742Z,7.60
2019-02-16T09:41:02.627Z,7.80
2019-02-16T09:44:00.879Z,7.80
2019-02-16T09:46:50.044Z,7.90
2019-02-16T09:49:30.906Z,8.00
2019-02-16T09:52:09.342Z,8.00
2019-02-16T09:54:51.513Z,8.00
2019-02-16T09:57:27.290Z,8.10
2019-02-16T10:00:03.527Z,8.30
2019-02-16T10:02:39.615Z,8.30
2019-02-16T10:05:26.275Z,8.40
2019-02-16T10:08:13.623Z,8.40
2019-02-16T10:10:58.855Z,8.40
2019-02-16T10:13:38.737Z,8.40
2019-02-16T10:16:27.874Z,8.40
2019-02-16T10:19:05.796Z,8.40
2019-02-16T10:21:50.957Z,8.50
2019-02-16T10:24:40.255Z,8.70
2019-02-16T10:27:29.569Z,8.50
2019-02-16T10:30:02.590Z,8.60
2019-02-16T10:32:47.515Z,8.60
2019-02-16T10:35:24.118Z,8.50
2019-02-16T10:37:57.572Z,8.60
2019-02-16T10:40:44.122Z,8.70
2019-02-16T10:43:36.717Z,8.70
2019-02-16T10:46:22.268Z,8.80
2019-02-16T10:49:08.733Z,8.90
2019-02-16T10:51:55.332Z,9.00
2019-02-16T10:54:32.047Z,9.00
2019-02-16T10:57:09.881Z,9.10
2019-02-16T11:00:05.230Z,9.20
2019-02-16T11:02:46.157Z,9.40
2019-02-16T11:05:19.123Z,9.60
2019-02-16T11:07:52.033Z,9.60
2019-02-16T11:10:38.703Z,9.80
2019-02-16T11:13:21.273Z,9.80
2019-02-16T11:15:54.920Z,9.80
2019-02-16T11:18:59.474Z,9.80
2019-02-16T11:21:38.958Z,9.80
2019-02-16T11:24:13.326Z,9.80
2019-02-16T11:26:48.337Z,9.80
2019-02-16T11:29:53.038Z,9.70
2019-02-16T11:32:39.494Z,9.70
2019-02-16T11:35:26.514Z,9.70
2019-02-16T11:38:04.330Z,9.70
2019-02-16T11:40:53.706Z,9.80
2019-02-16T11:43:34.345Z,9.70
2019-02-16T11:46:10.966Z,9.70
2019-02-16T11:48:45.661Z,9.70
2019-02-16T11:51:34.750Z,9.70
2019-02-16T11:54:45.226Z,9.70
2019-02-16T11:57:17.050Z,9.80
2019-02-16T11:59:59.864Z,9.70
2019-02-16T12:02:41.769Z,9.60
2019-02-16T12:05:18.095Z,9.70
2019-02-16T12:08:01.698Z,9.80
2019-02-16T12:10:56.823Z,9.80
2019-02-16T12:13:51.654Z,9.80
2019-02-16T12:16:38.192Z,10.00
2019-02-16T12:19:36.493Z,10.00
2019-02-16T12:22:12.438Z,10.00
2019-02-16T12:25:08.314Z,10.00
2019-02-16T12:28:17.414Z,10.00
2019-02-16T12:31:03.924Z,10.10
2019-02-16T12:33:38.882Z,10.00
2019-02-16T12:36:22.071Z,10.00
2019-02-16T12:39:05.097Z,10.10
2019-02-16T12:41:41.938Z,10.10
2019-02-16T12:44:31.219Z,10.10
2019-02-16T12:47:16.787Z,10.00
2019-02-16T12:49:51.050Z,10.00
2019-02-16T12:52:36.540Z,10.00
2019-02-16T12:55:21.481Z,10.10
2019-02-16T12:58:02.921Z,10.00
2019-02-16T13:01:04.367Z,10.00
2019-02-16T13:03:59.782Z,10.10
2019-02-16T13:06:46.228Z,10.10
2019-02-16T13:09:22.211Z,10.10
2019-02-16T13:11:58.132Z,10.10
2019-02-16T13:14:39.849Z,10.20
2019-02-16T13:17:32.446Z,10.30
2019-02-16T13:20:20.523Z,10.30
2019-02-16T13:23:01.558Z,10.20
2019-02-16T13:25:46.183Z,10.30
2019-02-16T13:28:26.465Z,10.20
2019-02-16T13:31:18.780Z,10.40
2019-02-16T13:34:03.864Z,10.40
2019-02-16T13:36:36.978Z,10.30
2019-02-16T13:39:18.934Z,10.20
2019-02-16T13:42:03.918Z,10.30
2019-02-16T13:44:49.171Z,10.40
2019-02-16T13:47:36.239Z,10.20
2019-02-16T13:50:20.402Z,10.30
2019-02-16T13:53:13.090Z,10.20
2019-02-16T13:55:58.213Z,10.30
2019-02-16T13:58:49.683Z,10.40
2019-02-16T14:01:32.146Z,10.30
2019-02-16T14:04:29.534Z,10.10
2019-02-16T14:07:14.405Z,10.00
2019-02-16T14:10:10.038Z,10.00
2019-02-16T14:12:55.549Z,10.00
2019-02-16T14:15:29.604Z,9.90
2019-02-16T14:17:56.708Z,9.90
2019-02-16T14:20:23.765Z,9.90
2019-02-16T14:22:50.704Z,9.80
2019-02-16T14:25:29.829Z,9.70
2019-02-16T14:27:56.891Z,9.70
2019-02-16T14:30:23.898Z,9.60
2019-02-16T14:32:50.840Z,9.60
2019-02-16T14:35:17.895Z,9.50
2019-02-16T14:37:52.663Z,9.50
2019-02-16T14:40:19.996Z,9.50
2019-02-16T14:42:46.882Z,9.40
2019-02-16T14:45:13.929Z,9.30
2019-02-16T14:47:40.920Z,9.30
2019-02-16T14:50:10.849Z,9.20
2019-02-16T14:52:37.872Z,9.10
2019-02-16T14:55:06.735Z,9.00
2019-02-16T14:57:34.114Z,9.00
2019-02-16T15:00:02.294Z,8.90
2019-02-16T15:02:31.919Z,8.80
2019-02-16T15:04:58.766Z,8.80
2019-02-16T15:07:25.611Z,8.60
2019-02-16T15:09:52.602Z,8.60
2019-02-16T15:12:19.442Z,8.50
2019-02-16T15:14:46.260Z,8.40
2019-02-16T15:17:13.163Z,8.40
2019-02-16T15:19:40.214Z,8.30
2019-02-16T15:22:07.129Z,8.20
2019-02-16T15:24:33.967Z,8.10
2019-02-16T15:27:00.938Z,8.10
2019-02-16T15:29:27.894Z,8.00
2019-02-16T15:31:54.806Z,8.00
2019-02-16T15:34:21.841Z,7.90
2019-02-16T15:36:48.705Z,7.90
2019-02-16T15:39:15.596Z,7.90
2019-02-16T15:41:42.559Z,7.80
2019-02-16T15:44:10.824Z,7.70
2019-02-16T15:46:37.877Z,7.70
2019-02-16T15:49:04.716Z,7.60
2019-02-16T15:51:31.845Z,7.50
2019-02-16T15:53:58.702Z,7.40
2019-02-16T15:56:25.568Z,7.30
2019-02-16T15:58:54.177Z,7.30
2019-02-16T16:01:22.891Z,7.30
2019-02-16T16:03:51.719Z,7.20
2019-02-16T16:06:46.073Z,7.10
2019-02-16T16:09:34.901Z,7.10
2019-02-16T16:12:11.765Z,7.10
2019-02-16T16:14:56.243Z,7.10
2019-02-16T16:17:35.756Z,7.00
2019-02-16T16:20:09.742Z,6.90
2019-02-16T16:22:55.981Z,6.90
2019-02-16T16:25:45.733Z,6.80
2019-02-16T16:28:32.264Z,6.80
2019-02-16T16:31:17.377Z,6.80
2019-02-16T16:34:06.832Z,6.70
2019-02-16T16:36:50.039Z,6.60
2019-02-16T16:39:28.810Z,6.60
2019-02-16T16:42:02.415Z,6.50
2019-02-16T16:44:57.589Z,6.50
2019-02-16T16:47:44.287Z,6.40
2019-02-16T16:50:34.010Z,6.40
2019-02-16T16:53:23.138Z,6.40
2019-02-16T16:55:56.233Z,6.30
2019-02-16T16:58:54.828Z,6.30
2019-02-16T17:01:56.726Z,6.40
2019-02-16T17:04:37.108Z,6.50
2019-02-16T17:07:37.957Z,6.60
2019-02-16T17:10:31.665Z,6.60
2019-02-16T17:13:29.960Z,6.70
2019-02-16T17:16:14.900Z,6.70
2019-02-16T17:18:58.749Z,6.70
2019-02-16T17:21:47.838Z,6.70
2019-02-16T17:24:37.529Z,6.80
2019-02-16T17:27:29.465Z,6.80
2019-02-16T17:30:05.550Z,6.90
2019-02-16T17:32:39.746Z,6.90
2019-02-16T17:35:41.774Z,6.90
2019-02-16T17:38:31.211Z,6.90
2019-02-16T17:41:22.122Z,6.90
2019-02-16T17:44:01.811Z,7.00
2019-02-16T17:46:38.314Z,7.00
2019-02-16T17:49:23.686Z,7.00
2019-02-16T17:52:10.420Z,7.00
2019-02-16T17:54:59.709Z,7.00
2019-02-16T17:57:52.526Z,7.00
2019-02-16T18:00:37.715Z,7.10
2019-02-16T18:03:36.175Z,7.10
2019-02-16T18:06:12.438Z,7.20
2019-02-16T18:09:01.834Z,7.20
2019-02-16T18:11:39.515Z,7.20
2019-02-16T18:14:32.158Z,7.20
2019-02-16T18:17:20.580Z,7.20
2019-02-16T18:19:59.033Z,7.20
2019-02-16T18:22:32.093Z,7.30
2019-02-16T18:25:16.366Z,7.30
2019-02-16T18:27:53.829Z,7.30
2019-02-16T18:30:51.738Z,7.30
2019-02-16T18:33:36.958Z,7.30
2019-02-16T18:36:28.515Z,7.30
2019-02-16T18:39:24.805Z,7.30
2019-02-16T18:42:12.356Z,7.30
2019-02-16T18:45:11.332Z,7.30
2019-02-16T18:48:06.589Z,7.30
2019-02-16T18:50:48.150Z,7.20
2019-02-16T18:53:43.587Z,7.10
2019-02-16T18:56:36.247Z,7.10
2019-02-16T18:59:28.946Z,7.10
2019-02-16T19:02:21.056Z,7.00
2019-02-16T19:05:09.279Z,7.00
2019-02-16T19:07:56.214Z,6.90
2019-02-16T19:10:38.028Z,6.90
2019-02-16T19:13:12.106Z,6.90
2019-02-16T19:16:10.529Z,6.80
2019-02-16T19:19:05.978Z,6.80
2019-02-16T19:21:43.434Z,6.80
2019-02-16T19:24:32.930Z,6.70
2019-02-16T19:27:22.085Z,6.70
2019-02-16T19:30:14.042Z,6.60
2019-02-16T19:33:00.781Z,6.60
2019-02-16T19:35:59.097Z,6.50
2019-02-16T19:39:01.031Z,6.50
2019-02-16T19:41:53.482Z,6.50
2019-02-16T19:44:31.332Z,6.40
2019-02-16T19:47:10.667Z,6.40
2019-02-16T19:49:47.756Z,6.30
2019-02-16T19:52:33.004Z,6.30
2019-02-16T19:55:06.003Z,6.30
2019-02-16T19:57:55.413Z,6.20
2019-02-16T20:00:40.969Z,6.20
2019-02-16T20:03:18.078Z,6.20
2019-02-16T20:06:01.867Z,6.20
2019-02-16T20:08:48.025Z,6.20
2019-02-16T20:11:34.642Z,6.10
2019-02-16T20:14:10.083Z,6.10
2019-02-16T20:17:02.609Z,6.10
2019-02-16T20:19:49.070Z,6.10
2019-02-16T20:22:26.750Z,6.00
2019-02-16T20:25:03.330Z,6.00
2019-02-16T20:27:56.159Z,6.00
2019-02-16T20:30:33.368Z,6.00
2019-02-16T20:33:22.824Z,6.00
2019-02-16T20:36:18.577Z,6.00
2019-02-16T20:39:04.233Z,6.00
2019-02-16T20:41:46.420Z,6.00
2019-02-16T20:44:33.087Z,5.90
2019-02-16T20:47:09.519Z,5.90
2019-02-16T20:49:54.655Z,5.90
2019-02-16T20:52:39.832Z,5.90
2019-02-16T20:55:12.590Z,5.90
2019-02-16T20:57:48.349Z,5.90
2019-02-16T21:00:43.768Z,5.90
2019-02-16T21:03:30.412Z,5.90
2019-02-16T21:06:17.039Z,5.90
2019-02-16T21:09:09.256Z,5.90
2019-02-16T21:12:01.682Z,5.90
2019-02-16T21:14:53.717Z,5.90
2019-02-16T21:17:48.908Z,5.90
2019-02-16T21:20:28.154Z,5.90
2019-02-16T21:23:07.250Z,5.90
2019-02-16T21:25:44.496Z,5.90
2019-02-16T21:28:41.585Z,5.90
2019-02-16T21:31:20.970Z,5.80
2019-02-16T21:33:59.617Z,5.90
2019-02-16T21:36:34.906Z,5.80
2019-02-16T21:39:24.024Z,5.80
2019-02-16T21:41:56.409Z,5.80
2019-02-16T21:44:44.135Z,5.80
2019-02-16T21:47:23.931Z,5.80
2019-02-16T21:50:09.185Z,5.80
2019-02-16T21:52:55.652Z,5.80
2019-02-16T21:55:42.939Z,5.80
2019-02-16T21:58:44.590Z,5.80
2019-02-16T22:01:17.753Z,5.80
2019-02-16T22:04:06.476Z,5.80
2019-02-16T22:06:45.675Z,5.80
2019-02-16T22:09:37.721Z,5.80
2019-02-16T22:12:36.454Z,5.80
2019-02-16T22:15:04.220Z,5.80
2019-02-16T22:17:31.040Z,5.80
2019-02-16T22:19:58.136Z,5.80
2019-02-16T22:22:24.955Z,5.80
2019-02-16T22:24:51.913Z,5.80
2019-02-16T22:27:18.797Z,5.80
2019-02-16T22:29:45.613Z,5.80
2019-02-16T22:32:12.442Z,5.80
2019-02-16T22:34:39.419Z,5.80
2019-02-16T22:37:06.871Z,5.80
2019-02-16T22:39:33.734Z,5.80
2019-02-16T22:42:00.720Z,5.80
2019-02-16T22:44:27.734Z,5.80
2019-02-16T22:46:54.539Z,5.80
2019-02-16T22:49:21.487Z,5.80
2019-02-16T22:51:48.426Z,5.80
2019-02-16T22:54:15.342Z,5.80
2019-02-16T22:56:42.444Z,5.80
2019-02-16T22:59:09.374Z,5.80
2019-02-16T23:01:36.577Z,5.80
2019-02-16T23:04:03.744Z,5.80
2019-02-16T23:06:30.555Z,5.80
2019-02-16T23:08:57.410Z,5.80
2019-02-16T23:11:24.379Z,5.80
2019-02-16T23:13:51.291Z,5.80
2019-02-16T23:16:18.330Z,5.80
2019-02-16T23:18:45.527Z,5.80
2019-02-16T23:21:12.573Z,5.80
2019-02-16T23:23:39.370Z,5.80
2019-02-16T23:26:06.519Z,5.80
2019-02-16T23:28:38.911Z,5.80
2019-02-16T23:31:02.491Z,5.80
2019-02-16T23:33:29.355Z,5.90
2019-02-16T23:35:56.210Z,5.90
2019-02-16T23:38:23.021Z,5.80
2019-02-16T23:40:49.980Z,5.80
2019-02-16T23:43:16.902Z,5.80
2019-02-16T23:45:43.855Z,5.80
2019-02-16T23:48:10.714Z,5.80
2019-02-16T23:50:37.663Z,5.80
2019-02-16T23:53:04.718Z,5.70
2019-02-16T23:55:31.685Z,5.70
2019-02-16T23:57:58.485Z,5.70
